sensor_id;sensor_type;location;lat;lon;timestamp;temperature;humidity
30399;DHT22;17195;50.838;7.214;2024-01-07T00:01:26;3.30;99.90
30399;DHT22;17195;50.838;7.214;2024-01-07T00:03:52;3.30;99.90
30399;DHT22;17195;50.838;7.214;2024-01-07T00:06:17;3.30;99.90
30399;DHT22;17195;50.838;7.214;2024-01-07T00:08:43;3.30;99.90
30399;DHT22;17195;50.838;7.214;2024-01-07T00:11:09;3.30;99.90
30399;DHT22;17195;50.838;7.214;2024-01-07T00:13:35;3.30;99.90
30399;DHT22;17195;50.838;7.214;2024-01-07T00:16:00;3.30;99.90
30399;DHT22;17195;50.838;7.214;2024-01-07T00:18:26;3.30;99.90
30399;DHT22;17195;50.838;7.214;2024-01-07T00:20:53;3.20;99.90
30399;DHT22;17195;50.838;7.214;2024-01-07T00:23:18;3.20;99.90
30399;DHT22;17195;50.838;7.214;2024-01-07T00:25:46;3.20;99.90
30399;DHT22;17195;50.838;7.214;2024-01-07T00:28:12;3.20;99.90
30399;DHT22;17195;50.838;7.214;2024-01-07T00:30:37;3.20;99.90
30399;DHT22;17195;50.838;7.214;2024-01-07T00:33:03;3.30;99.90
30399;DHT22;17195;50.838;7.214;2024-01-07T00:35:28;3.30;99.90
30399;DHT22;17195;50.838;7.214;2024-01-07T00:37:54;3.30;99.90
30399;DHT22;17195;50.838;7.214;2024-01-07T00:40:22;3.20;99.90
30399;DHT22;17195;50.838;7.214;2024-01-07T00:42:47;3.30;99.90
30399;DHT22;17195;50.838;7.214;2024-01-07T00:45:13;3.30;99.90
30399;DHT22;17195;50.838;7.214;2024-01-07T00:47:39;3.20;99.90
30399;DHT22;17195;50.838;7.214;2024-01-07T00:50:04;3.20;99.90
30399;DHT22;17195;50.838;7.214;2024-01-07T00:52:30;3.30;99.90
30399;DHT22;17195;50.838;7.214;2024-01-07T00:54:56;3.30;99.90
30399;DHT22;17195;50.838;7.214;2024-01-07T00:57:22;3.40;99.90
30399;DHT22;17195;50.838;7.214;2024-01-07T00:59:47;3.40;99.90
30399;DHT22;17195;50.838;7.214;2024-01-07T01:02:13;3.40;99.90
30399;DHT22;17195;50.838;7.214;2024-01-07T01:04:39;3.40;99.90
30399;DHT22;17195;50.838;7.214;2024-01-07T01:07:05;3.40;99.90
30399;DHT22;17195;50.838;7.214;2024-01-07T01:09:32;3.40;99.90
30399;DHT22;17195;50.838;7.214;2024-01-07T01:11:58;3.40;99.90
30399;DHT22;17195;50.838;7.214;2024-01-07T01:14:23;3.30;99.90
30399;DHT22;17195;50.838;7.214;2024-01-07T01:16:49;3.50;99.90
30399;DHT22;17195;50.838;7.214;2024-01-07T01:19:15;3.40;99.90
30399;DHT22;17195;50.838;7.214;2024-01-07T01:21:41;3.40;99.90
30399;DHT22;17195;50.838;7.214;2024-01-07T01:24:06;3.40;99.90
30399;DHT22;17195;50.838;7.214;2024-01-07T01:26:32;3.40;99.90
30399;DHT22;17195;50.838;7.214;2024-01-07T01:28:57;3.40;99.90
30399;DHT22;17195;50.838;7.214;2024-01-07T01:31:23;3.40;99.90
30399;DHT22;17195;50.838;7.214;2024-01-07T01:33:48;3.40;99.90
30399;DHT22;17195;50.838;7.214;2024-01-07T01:36:14;3.40;99.90
30399;DHT22;17195;50.838;7.214;2024-01-07T01:38:39;3.40;99.90
30399;DHT22;17195;50.838;7.214;2024-01-07T01:41:05;3.40;99.90
30399;DHT22;17195;50.838;7.214;2024-01-07T01:43:31;3.40;99.90
30399;DHT22;17195;50.838;7.214;2024-01-07T01:45:57;3.40;99.90
30399;DHT22;17195;50.838;7.214;2024-01-07T01:48:23;3.40;99.90
30399;DHT22;17195;50.838;7.214;2024-01-07T01:50:49;3.40;99.90
30399;DHT22;17195;50.838;7.214;2024-01-07T01:53:15;3.40;99.90
30399;DHT22;17195;50.838;7.214;2024-01-07T01:55:42;3.40;99.90
30399;DHT22;17195;50.838;7.214;2024-01-07T01:58:09;3.40;99.90
30399;DHT22;17195;50.838;7.214;2024-01-07T02:00:35;3.40;99.90
30399;DHT22;17195;50.838;7.214;2024-01-07T02:03:00;3.40;99.90
30399;DHT22;17195;50.838;7.214;2024-01-07T02:05:26;3.40;99.90
30399;DHT22;17195;50.838;7.214;2024-01-07T02:07:53;3.50;99.90
30399;DHT22;17195;50.838;7.214;2024-01-07T02:10:20;3.40;99.90
30399;DHT22;17195;50.838;7.214;2024-01-07T02:12:46;3.40;99.90
30399;DHT22;17195;50.838;7.214;2024-01-07T02:15:11;3.50;99.90
30399;DHT22;17195;50.838;7.214;2024-01-07T02:17:37;3.50;99.90
30399;DHT22;17195;50.838;7.214;2024-01-07T02:20:02;3.50;99.90
30399;DHT22;17195;50.838;7.214;2024-01-07T02:22:28;3.60;99.90
30399;DHT22;17195;50.838;7.214;2024-01-07T02:24:53;3.60;99.90
30399;DHT22;17195;50.838;7.214;2024-01-07T02:27:19;3.60;99.90
30399;DHT22;17195;50.838;7.214;2024-01-07T02:29:45;3.50;99.90
30399;DHT22;17195;50.838;7.214;2024-01-07T02:32:10;3.50;99.90
30399;DHT22;17195;50.838;7.214;2024-01-07T02:34:36;3.60;99.90
30399;DHT22;17195;50.838;7.214;2024-01-07T02:37:01;3.50;99.90
30399;DHT22;17195;50.838;7.214;2024-01-07T02:39:27;3.50;99.90
30399;DHT22;17195;50.838;7.214;2024-01-07T02:41:52;3.50;99.90
30399;DHT22;17195;50.838;7.214;2024-01-07T02:44:18;3.50;99.90
30399;DHT22;17195;50.838;7.214;2024-01-07T02:46:43;3.50;99.90
30399;DHT22;17195;50.838;7.214;2024-01-07T02:49:09;3.50;99.90
30399;DHT22;17195;50.838;7.214;2024-01-07T02:51:34;3.50;99.90
30399;DHT22;17195;50.838;7.214;2024-01-07T02:54:00;3.50;99.90
30399;DHT22;17195;50.838;7.214;2024-01-07T02:56:26;3.50;99.90
30399;DHT22;17195;50.838;7.214;2024-01-07T02:58:51;3.50;99.90
30399;DHT22;17195;50.838;7.214;2024-01-07T03:01:17;3.40;99.90
30399;DHT22;17195;50.838;7.214;2024-01-07T03:03:42;3.40;99.90
30399;DHT22;17195;50.838;7.214;2024-01-07T03:06:08;3.40;99.90
30399;DHT22;17195;50.838;7.214;2024-01-07T03:08:34;3.50;99.90
30399;DHT22;17195;50.838;7.214;2024-01-07T03:11:04;3.50;99.90
30399;DHT22;17195;50.838;7.214;2024-01-07T03:13:30;3.50;99.90
30399;DHT22;17195;50.838;7.214;2024-01-07T03:15:56;3.50;99.90
30399;DHT22;17195;50.838;7.214;2024-01-07T03:18:21;3.50;99.90
30399;DHT22;17195;50.838;7.214;2024-01-07T03:20:47;3.50;99.90
30399;DHT22;17195;50.838;7.214;2024-01-07T03:23:12;3.50;99.90
30399;DHT22;17195;50.838;7.214;2024-01-07T03:25:38;3.60;99.90
30399;DHT22;17195;50.838;7.214;2024-01-07T03:28:03;3.60;99.90
30399;DHT22;17195;50.838;7.214;2024-01-07T03:30:29;3.60;99.90
30399;DHT22;17195;50.838;7.214;2024-01-07T03:32:55;3.50;99.90
30399;DHT22;17195;50.838;7.214;2024-01-07T03:35:20;3.60;99.90
30399;DHT22;17195;50.838;7.214;2024-01-07T03:37:47;3.50;99.90
30399;DHT22;17195;50.838;7.214;2024-01-07T03:40:12;3.60;99.90
30399;DHT22;17195;50.838;7.214;2024-01-07T03:42:38;3.50;99.90
30399;DHT22;17195;50.838;7.214;2024-01-07T03:45:04;3.50;99.90
30399;DHT22;17195;50.838;7.214;2024-01-07T03:47:30;3.60;99.90
30399;DHT22;17195;50.838;7.214;2024-01-07T03:49:57;3.60;99.90
30399;DHT22;17195;50.838;7.214;2024-01-07T03:52:22;3.60;99.90
30399;DHT22;17195;50.838;7.214;2024-01-07T03:54:48;3.60;99.90
30399;DHT22;17195;50.838;7.214;2024-01-07T03:57:13;3.60;99.90
30399;DHT22;17195;50.838;7.214;2024-01-07T03:59:39;3.50;99.90
30399;DHT22;17195;50.838;7.214;2024-01-07T04:02:04;3.50;99.90
30399;DHT22;17195;50.838;7.214;2024-01-07T04:04:30;3.60;99.90
30399;DHT22;17195;50.838;7.214;2024-01-07T04:06:56;3.60;99.90
30399;DHT22;17195;50.838;7.214;2024-01-07T04:09:21;3.50;99.90
30399;DHT22;17195;50.838;7.214;2024-01-07T04:11:47;3.60;99.90
30399;DHT22;17195;50.838;7.214;2024-01-07T04:14:14;3.60;99.90
30399;DHT22;17195;50.838;7.214;2024-01-07T04:16:40;3.60;99.90
30399;DHT22;17195;50.838;7.214;2024-01-07T04:19:06;3.60;99.90
30399;DHT22;17195;50.838;7.214;2024-01-07T04:21:31;3.50;99.90
30399;DHT22;17195;50.838;7.214;2024-01-07T04:23:57;3.50;99.90
30399;DHT22;17195;50.838;7.214;2024-01-07T04:26:23;3.50;99.90
30399;DHT22;17195;50.838;7.214;2024-01-07T04:28:48;3.50;99.90
30399;DHT22;17195;50.838;7.214;2024-01-07T04:31:14;3.50;99.90
30399;DHT22;17195;50.838;7.214;2024-01-07T04:33:39;3.50;99.90
30399;DHT22;17195;50.838;7.214;2024-01-07T04:36:05;3.50;99.90
30399;DHT22;17195;50.838;7.214;2024-01-07T04:38:31;3.50;99.90
30399;DHT22;17195;50.838;7.214;2024-01-07T04:40:56;3.50;99.90
30399;DHT22;17195;50.838;7.214;2024-01-07T04:43:22;3.50;99.90
30399;DHT22;17195;50.838;7.214;2024-01-07T04:45:48;3.50;99.90
30399;DHT22;17195;50.838;7.214;2024-01-07T04:48:13;3.50;99.90
30399;DHT22;17195;50.838;7.214;2024-01-07T04:50:40;3.60;99.90
30399;DHT22;17195;50.838;7.214;2024-01-07T04:53:09;3.50;99.90
30399;DHT22;17195;50.838;7.214;2024-01-07T04:55:36;3.50;99.90
30399;DHT22;17195;50.838;7.214;2024-01-07T04:58:01;3.50;99.90
30399;DHT22;17195;50.838;7.214;2024-01-07T05:00:27;3.50;99.90
30399;DHT22;17195;50.838;7.214;2024-01-07T05:02:53;3.50;99.90
30399;DHT22;17195;50.838;7.214;2024-01-07T05:05:18;3.40;99.90
30399;DHT22;17195;50.838;7.214;2024-01-07T05:07:44;3.40;99.90
30399;DHT22;17195;50.838;7.214;2024-01-07T05:10:09;3.40;99.90
30399;DHT22;17195;50.838;7.214;2024-01-07T05:12:35;3.40;99.90
30399;DHT22;17195;50.838;7.214;2024-01-07T05:15:00;3.30;99.90
30399;DHT22;17195;50.838;7.214;2024-01-07T05:17:26;3.40;99.90
30399;DHT22;17195;50.838;7.214;2024-01-07T05:19:51;3.30;99.90
30399;DHT22;17195;50.838;7.214;2024-01-07T05:22:17;3.30;99.90
30399;DHT22;17195;50.838;7.214;2024-01-07T05:24:43;3.20;99.90
30399;DHT22;17195;50.838;7.214;2024-01-07T05:27:09;3.30;99.90
30399;DHT22;17195;50.838;7.214;2024-01-07T05:29:34;3.30;99.90
30399;DHT22;17195;50.838;7.214;2024-01-07T05:32:00;3.30;99.90
30399;DHT22;17195;50.838;7.214;2024-01-07T05:34:27;3.20;99.90
30399;DHT22;17195;50.838;7.214;2024-01-07T05:36:53;3.20;99.90
30399;DHT22;17195;50.838;7.214;2024-01-07T05:39:18;3.20;99.90
30399;DHT22;17195;50.838;7.214;2024-01-07T05:41:45;3.20;99.90
30399;DHT22;17195;50.838;7.214;2024-01-07T05:44:11;3.20;99.90
30399;DHT22;17195;50.838;7.214;2024-01-07T05:46:40;3.30;99.90
30399;DHT22;17195;50.838;7.214;2024-01-07T05:49:06;3.20;99.90
30399;DHT22;17195;50.838;7.214;2024-01-07T05:51:32;3.20;99.90
30399;DHT22;17195;50.838;7.214;2024-01-07T05:53:57;3.10;99.90
30399;DHT22;17195;50.838;7.214;2024-01-07T05:56:23;3.10;99.90
30399;DHT22;17195;50.838;7.214;2024-01-07T05:58:49;3.20;99.90
30399;DHT22;17195;50.838;7.214;2024-01-07T06:01:21;3.20;99.90
30399;DHT22;17195;50.838;7.214;2024-01-07T06:03:47;3.20;99.90
30399;DHT22;17195;50.838;7.214;2024-01-07T06:06:15;3.20;99.90
30399;DHT22;17195;50.838;7.214;2024-01-07T06:08:42;3.20;99.90
30399;DHT22;17195;50.838;7.214;2024-01-07T06:11:08;3.10;99.90
30399;DHT22;17195;50.838;7.214;2024-01-07T06:13:33;3.10;99.90
30399;DHT22;17195;50.838;7.214;2024-01-07T06:15:59;3.20;99.90
30399;DHT22;17195;50.838;7.214;2024-01-07T06:18:24;3.10;99.90
30399;DHT22;17195;50.838;7.214;2024-01-07T06:20:50;3.10;99.90
30399;DHT22;17195;50.838;7.214;2024-01-07T06:23:15;3.10;99.90
30399;DHT22;17195;50.838;7.214;2024-01-07T06:25:41;3.10;99.90
30399;DHT22;17195;50.838;7.214;2024-01-07T06:28:07;3.10;99.90
30399;DHT22;17195;50.838;7.214;2024-01-07T06:30:32;3.00;99.90
30399;DHT22;17195;50.838;7.214;2024-01-07T06:32:59;3.10;99.90
30399;DHT22;17195;50.838;7.214;2024-01-07T06:35:24;3.10;99.90
30399;DHT22;17195;50.838;7.214;2024-01-07T06:37:50;3.10;99.90
30399;DHT22;17195;50.838;7.214;2024-01-07T06:40:15;3.10;99.90
30399;DHT22;17195;50.838;7.214;2024-01-07T06:42:41;3.10;99.90
30399;DHT22;17195;50.838;7.214;2024-01-07T06:45:07;3.10;99.90
30399;DHT22;17195;50.838;7.214;2024-01-07T06:47:33;3.10;99.90
30399;DHT22;17195;50.838;7.214;2024-01-07T06:49:58;3.10;99.90
30399;DHT22;17195;50.838;7.214;2024-01-07T06:52:24;3.10;99.90
30399;DHT22;17195;50.838;7.214;2024-01-07T06:54:49;3.10;99.90
30399;DHT22;17195;50.838;7.214;2024-01-07T06:57:15;3.10;99.90
30399;DHT22;17195;50.838;7.214;2024-01-07T06:59:40;3.10;99.90
30399;DHT22;17195;50.838;7.214;2024-01-07T07:02:06;3.10;99.90
30399;DHT22;17195;50.838;7.214;2024-01-07T07:04:31;3.20;99.90
30399;DHT22;17195;50.838;7.214;2024-01-07T07:06:57;3.10;99.90
30399;DHT22;17195;50.838;7.214;2024-01-07T07:09:23;3.10;99.90
30399;DHT22;17195;50.838;7.214;2024-01-07T07:11:48;3.10;99.90
30399;DHT22;17195;50.838;7.214;2024-01-07T07:14:14;3.10;99.90
30399;DHT22;17195;50.838;7.214;2024-01-07T07:16:40;3.10;99.90
30399;DHT22;17195;50.838;7.214;2024-01-07T07:19:05;3.10;99.90
30399;DHT22;17195;50.838;7.214;2024-01-07T07:21:31;3.10;99.90
30399;DHT22;17195;50.838;7.214;2024-01-07T07:23:57;3.20;99.90
30399;DHT22;17195;50.838;7.214;2024-01-07T07:26:23;3.20;99.90
30399;DHT22;17195;50.838;7.214;2024-01-07T07:28:48;3.20;99.90
30399;DHT22;17195;50.838;7.214;2024-01-07T07:31:14;3.10;99.90
30399;DHT22;17195;50.838;7.214;2024-01-07T07:33:40;3.10;99.90
30399;DHT22;17195;50.838;7.214;2024-01-07T07:36:06;3.20;99.90
30399;DHT22;17195;50.838;7.214;2024-01-07T07:38:32;3.10;99.90
30399;DHT22;17195;50.838;7.214;2024-01-07T07:40:58;3.10;99.90
30399;DHT22;17195;50.838;7.214;2024-01-07T07:43:23;3.20;99.90
30399;DHT22;17195;50.838;7.214;2024-01-07T07:45:50;3.20;99.90
30399;DHT22;17195;50.838;7.214;2024-01-07T07:48:16;3.20;99.90
30399;DHT22;17195;50.838;7.214;2024-01-07T07:50:42;3.20;99.90
30399;DHT22;17195;50.838;7.214;2024-01-07T07:53:07;3.20;99.90
30399;DHT22;17195;50.838;7.214;2024-01-07T07:55:33;3.20;99.90
30399;DHT22;17195;50.838;7.214;2024-01-07T07:57:58;3.10;99.90
30399;DHT22;17195;50.838;7.214;2024-01-07T08:00:24;3.10;99.90
30399;DHT22;17195;50.838;7.214;2024-01-07T08:02:50;3.10;99.90
30399;DHT22;17195;50.838;7.214;2024-01-07T08:05:15;3.20;99.90
30399;DHT22;17195;50.838;7.214;2024-01-07T08:07:41;3.20;99.90
30399;DHT22;17195;50.838;7.214;2024-01-07T08:10:07;3.30;99.90
30399;DHT22;17195;50.838;7.214;2024-01-07T08:12:33;3.30;99.90
30399;DHT22;17195;50.838;7.214;2024-01-07T08:14:59;3.30;99.90
30399;DHT22;17195;50.838;7.214;2024-01-07T08:17:24;3.30;99.90
30399;DHT22;17195;50.838;7.214;2024-01-07T08:19:50;3.30;99.90
30399;DHT22;17195;50.838;7.214;2024-01-07T08:22:16;3.30;99.90
30399;DHT22;17195;50.838;7.214;2024-01-07T08:24:41;3.40;99.90
30399;DHT22;17195;50.838;7.214;2024-01-07T08:27:08;3.40;99.90
30399;DHT22;17195;50.838;7.214;2024-01-07T08:29:33;3.40;99.90
30399;DHT22;17195;50.838;7.214;2024-01-07T08:31:59;3.40;99.90
30399;DHT22;17195;50.838;7.214;2024-01-07T08:34:24;3.40;99.90
30399;DHT22;17195;50.838;7.214;2024-01-07T08:36:50;3.40;99.90
30399;DHT22;17195;50.838;7.214;2024-01-07T08:39:16;3.40;99.90
30399;DHT22;17195;50.838;7.214;2024-01-07T08:41:41;3.40;99.90
30399;DHT22;17195;50.838;7.214;2024-01-07T08:44:07;3.40;99.90
30399;DHT22;17195;50.838;7.214;2024-01-07T08:46:34;3.40;99.90
30399;DHT22;17195;50.838;7.214;2024-01-07T08:49:00;3.40;99.90
30399;DHT22;17195;50.838;7.214;2024-01-07T08:51:25;3.40;99.90
30399;DHT22;17195;50.838;7.214;2024-01-07T08:53:51;3.40;99.90
30399;DHT22;17195;50.838;7.214;2024-01-07T08:56:16;3.50;99.90
30399;DHT22;17195;50.838;7.214;2024-01-07T08:58:42;3.50;99.90
30399;DHT22;17195;50.838;7.214;2024-01-07T09:01:08;3.40;99.90
30399;DHT22;17195;50.838;7.214;2024-01-07T09:03:33;3.40;99.90
30399;DHT22;17195;50.838;7.214;2024-01-07T09:05:59;3.50;99.90
30399;DHT22;17195;50.838;7.214;2024-01-07T09:08:24;3.60;99.90
30399;DHT22;17195;50.838;7.214;2024-01-07T09:10:50;3.50;99.90
30399;DHT22;17195;50.838;7.214;2024-01-07T09:13:16;3.50;99.90
30399;DHT22;17195;50.838;7.214;2024-01-07T09:15:41;3.50;99.90
30399;DHT22;17195;50.838;7.214;2024-01-07T09:18:07;3.50;99.90
30399;DHT22;17195;50.838;7.214;2024-01-07T09:20:32;3.40;99.90
30399;DHT22;17195;50.838;7.214;2024-01-07T09:22:59;3.40;99.90
30399;DHT22;17195;50.838;7.214;2024-01-07T09:25:24;3.40;99.90
30399;DHT22;17195;50.838;7.214;2024-01-07T09:27:51;3.50;99.90
30399;DHT22;17195;50.838;7.214;2024-01-07T09:30:17;3.40;99.90
30399;DHT22;17195;50.838;7.214;2024-01-07T09:32:43;3.40;99.90
30399;DHT22;17195;50.838;7.214;2024-01-07T09:35:09;3.40;99.90
30399;DHT22;17195;50.838;7.214;2024-01-07T09:37:34;3.50;99.90
30399;DHT22;17195;50.838;7.214;2024-01-07T09:40:01;3.40;99.90
30399;DHT22;17195;50.838;7.214;2024-01-07T09:42:26;3.50;99.90
30399;DHT22;17195;50.838;7.214;2024-01-07T09:44:52;3.50;99.90
30399;DHT22;17195;50.838;7.214;2024-01-07T09:47:18;3.50;99.90
30399;DHT22;17195;50.838;7.214;2024-01-07T09:49:44;3.50;99.90
30399;DHT22;17195;50.838;7.214;2024-01-07T09:52:10;3.60;99.90
30399;DHT22;17195;50.838;7.214;2024-01-07T09:54:37;3.60;99.90
30399;DHT22;17195;50.838;7.214;2024-01-07T09:57:04;3.60;99.90
30399;DHT22;17195;50.838;7.214;2024-01-07T09:59:37;3.60;99.90
30399;DHT22;17195;50.838;7.214;2024-01-07T10:02:03;3.70;99.90
30399;DHT22;17195;50.838;7.214;2024-01-07T10:04:29;3.70;99.90
30399;DHT22;17195;50.838;7.214;2024-01-07T10:06:55;3.80;99.90
30399;DHT22;17195;50.838;7.214;2024-01-07T10:09:24;3.80;99.90
30399;DHT22;17195;50.838;7.214;2024-01-07T10:11:51;3.80;99.90
30399;DHT22;17195;50.838;7.214;2024-01-07T10:14:17;3.70;99.90
30399;DHT22;17195;50.838;7.214;2024-01-07T10:16:43;3.80;99.90
30399;DHT22;17195;50.838;7.214;2024-01-07T10:19:08;3.80;99.90
30399;DHT22;17195;50.838;7.214;2024-01-07T10:21:34;3.80;99.90
30399;DHT22;17195;50.838;7.214;2024-01-07T10:24:13;3.80;99.90
30399;DHT22;17195;50.838;7.214;2024-01-07T10:26:40;3.80;99.90
30399;DHT22;17195;50.838;7.214;2024-01-07T10:29:06;3.70;99.90
30399;DHT22;17195;50.838;7.214;2024-01-07T10:31:33;3.80;99.90
30399;DHT22;17195;50.838;7.214;2024-01-07T10:33:59;3.70;99.90
30399;DHT22;17195;50.838;7.214;2024-01-07T10:36:25;3.80;99.90
30399;DHT22;17195;50.838;7.214;2024-01-07T10:38:51;3.60;99.90
30399;DHT22;17195;50.838;7.214;2024-01-07T10:41:19;3.50;99.90
30399;DHT22;17195;50.838;7.214;2024-01-07T10:43:49;3.50;99.90
30399;DHT22;17195;50.838;7.214;2024-01-07T10:46:15;3.60;99.90
30399;DHT22;17195;50.838;7.214;2024-01-07T10:48:54;3.60;99.90
30399;DHT22;17195;50.838;7.214;2024-01-07T10:51:21;3.70;99.90
30399;DHT22;17195;50.838;7.214;2024-01-07T10:53:52;3.70;99.90
30399;DHT22;17195;50.838;7.214;2024-01-07T10:56:24;3.70;99.90
30399;DHT22;17195;50.838;7.214;2024-01-07T10:58:53;3.70;99.90
30399;DHT22;17195;50.838;7.214;2024-01-07T11:01:22;3.70;99.90
30399;DHT22;17195;50.838;7.214;2024-01-07T11:03:57;3.80;99.90
30399;DHT22;17195;50.838;7.214;2024-01-07T11:08:59;3.80;99.90
30399;DHT22;17195;50.838;7.214;2024-01-07T11:11:36;3.80;99.90
30399;DHT22;17195;50.838;7.214;2024-01-07T11:14:03;3.90;99.90
30399;DHT22;17195;50.838;7.214;2024-01-07T11:16:49;4.00;99.90
30399;DHT22;17195;50.838;7.214;2024-01-07T11:19:14;4.00;99.90
30399;DHT22;17195;50.838;7.214;2024-01-07T11:21:40;4.00;99.90
30399;DHT22;17195;50.838;7.214;2024-01-07T11:24:06;4.00;99.90
30399;DHT22;17195;50.838;7.214;2024-01-07T11:26:31;3.90;99.90
30399;DHT22;17195;50.838;7.214;2024-01-07T11:28:57;3.90;99.90
30399;DHT22;17195;50.838;7.214;2024-01-07T11:34:04;3.90;99.90
30399;DHT22;17195;50.838;7.214;2024-01-07T11:36:29;4.00;99.90
30399;DHT22;17195;50.838;7.214;2024-01-07T11:38:55;4.00;99.90
30399;DHT22;17195;50.838;7.214;2024-01-07T11:41:21;4.00;99.90
30399;DHT22;17195;50.838;7.214;2024-01-07T11:43:57;4.10;99.90
30399;DHT22;17195;50.838;7.214;2024-01-07T11:46:27;4.10;99.90
30399;DHT22;17195;50.838;7.214;2024-01-07T11:48:54;4.00;99.90
30399;DHT22;17195;50.838;7.214;2024-01-07T11:51:28;3.90;99.90
30399;DHT22;17195;50.838;7.214;2024-01-07T11:53:54;3.90;99.90
30399;DHT22;17195;50.838;7.214;2024-01-07T11:56:19;3.80;99.90
30399;DHT22;17195;50.838;7.214;2024-01-07T11:58:45;3.80;99.90
30399;DHT22;17195;50.838;7.214;2024-01-07T12:01:10;3.80;99.90
30399;DHT22;17195;50.838;7.214;2024-01-07T12:03:36;3.80;99.90
30399;DHT22;17195;50.838;7.214;2024-01-07T12:06:03;3.90;99.90
30399;DHT22;17195;50.838;7.214;2024-01-07T12:08:29;3.90;99.90
30399;DHT22;17195;50.838;7.214;2024-01-07T12:10:56;3.90;99.90
30399;DHT22;17195;50.838;7.214;2024-01-07T12:13:21;3.90;99.90
30399;DHT22;17195;50.838;7.214;2024-01-07T12:15:47;3.90;99.90
30399;DHT22;17195;50.838;7.214;2024-01-07T12:18:14;3.90;99.90
30399;DHT22;17195;50.838;7.214;2024-01-07T12:20:40;3.90;99.90
30399;DHT22;17195;50.838;7.214;2024-01-07T12:23:09;3.90;99.90
30399;DHT22;17195;50.838;7.214;2024-01-07T12:25:35;3.80;99.90
30399;DHT22;17195;50.838;7.214;2024-01-07T12:28:01;3.80;99.90
30399;DHT22;17195;50.838;7.214;2024-01-07T12:30:27;3.80;99.90
30399;DHT22;17195;50.838;7.214;2024-01-07T12:32:53;3.70;99.90
30399;DHT22;17195;50.838;7.214;2024-01-07T12:35:19;3.70;99.90
30399;DHT22;17195;50.838;7.214;2024-01-07T12:37:44;3.60;99.90
30399;DHT22;17195;50.838;7.214;2024-01-07T12:40:11;3.70;99.90
30399;DHT22;17195;50.838;7.214;2024-01-07T12:42:40;3.70;99.90
30399;DHT22;17195;50.838;7.214;2024-01-07T12:45:13;3.60;99.90
30399;DHT22;17195;50.838;7.214;2024-01-07T12:47:42;3.60;99.90
30399;DHT22;17195;50.838;7.214;2024-01-07T12:50:09;3.60;99.90
30399;DHT22;17195;50.838;7.214;2024-01-07T12:52:39;3.50;99.90
30399;DHT22;17195;50.838;7.214;2024-01-07T12:55:05;3.40;99.90
30399;DHT22;17195;50.838;7.214;2024-01-07T12:57:32;3.40;99.90
30399;DHT22;17195;50.838;7.214;2024-01-07T12:59:57;3.50;99.90
30399;DHT22;17195;50.838;7.214;2024-01-07T13:02:23;3.50;99.90
30399;DHT22;17195;50.838;7.214;2024-01-07T13:04:49;3.50;99.90
30399;DHT22;17195;50.838;7.214;2024-01-07T13:07:15;3.40;99.90
30399;DHT22;17195;50.838;7.214;2024-01-07T13:09:40;3.30;99.90
30399;DHT22;17195;50.838;7.214;2024-01-07T13:12:06;3.30;99.90
30399;DHT22;17195;50.838;7.214;2024-01-07T13:14:32;3.30;99.90
30399;DHT22;17195;50.838;7.214;2024-01-07T13:16:57;3.30;99.90
30399;DHT22;17195;50.838;7.214;2024-01-07T13:19:24;3.20;99.90
30399;DHT22;17195;50.838;7.214;2024-01-07T13:21:50;3.30;99.90
30399;DHT22;17195;50.838;7.214;2024-01-07T13:24:16;3.30;99.90
30399;DHT22;17195;50.838;7.214;2024-01-07T13:26:42;3.20;99.90
30399;DHT22;17195;50.838;7.214;2024-01-07T13:29:07;3.20;99.90
30399;DHT22;17195;50.838;7.214;2024-01-07T13:31:33;3.20;99.90
30399;DHT22;17195;50.838;7.214;2024-01-07T13:33:58;3.10;99.90
30399;DHT22;17195;50.838;7.214;2024-01-07T13:36:24;3.00;99.90
30399;DHT22;17195;50.838;7.214;2024-01-07T13:38:49;2.90;99.90
30399;DHT22;17195;50.838;7.214;2024-01-07T13:41:16;2.90;99.90
30399;DHT22;17195;50.838;7.214;2024-01-07T13:43:42;2.80;99.90
30399;DHT22;17195;50.838;7.214;2024-01-07T13:46:08;2.70;99.90
30399;DHT22;17195;50.838;7.214;2024-01-07T13:48:34;2.60;99.90
30399;DHT22;17195;50.838;7.214;2024-01-07T13:51:00;2.70;99.90
30399;DHT22;17195;50.838;7.214;2024-01-07T13:53:26;2.70;99.90
30399;DHT22;17195;50.838;7.214;2024-01-07T13:55:51;2.60;99.90
30399;DHT22;17195;50.838;7.214;2024-01-07T13:58:17;2.60;99.90
30399;DHT22;17195;50.838;7.214;2024-01-07T14:00:42;2.50;99.90
30399;DHT22;17195;50.838;7.214;2024-01-07T14:03:08;2.50;99.90
30399;DHT22;17195;50.838;7.214;2024-01-07T14:05:33;2.50;99.90
30399;DHT22;17195;50.838;7.214;2024-01-07T14:07:59;2.50;99.90
30399;DHT22;17195;50.838;7.214;2024-01-07T14:10:24;2.50;99.90
30399;DHT22;17195;50.838;7.214;2024-01-07T14:12:50;2.50;99.90
30399;DHT22;17195;50.838;7.214;2024-01-07T14:15:16;2.60;99.90
30399;DHT22;17195;50.838;7.214;2024-01-07T14:17:43;2.50;99.90
30399;DHT22;17195;50.838;7.214;2024-01-07T14:20:09;2.50;99.90
30399;DHT22;17195;50.838;7.214;2024-01-07T14:22:35;2.40;99.90
30399;DHT22;17195;50.838;7.214;2024-01-07T14:25:01;2.40;99.90
30399;DHT22;17195;50.838;7.214;2024-01-07T14:27:27;2.40;99.90
30399;DHT22;17195;50.838;7.214;2024-01-07T14:29:52;2.40;99.90
30399;DHT22;17195;50.838;7.214;2024-01-07T14:32:18;2.40;99.90
30399;DHT22;17195;50.838;7.214;2024-01-07T14:34:44;2.30;99.90
30399;DHT22;17195;50.838;7.214;2024-01-07T14:37:10;2.30;99.90
30399;DHT22;17195;50.838;7.214;2024-01-07T14:39:36;2.30;99.90
30399;DHT22;17195;50.838;7.214;2024-01-07T14:42:02;2.30;99.90
30399;DHT22;17195;50.838;7.214;2024-01-07T14:44:28;2.30;99.90
30399;DHT22;17195;50.838;7.214;2024-01-07T14:46:54;2.20;99.90
30399;DHT22;17195;50.838;7.214;2024-01-07T14:49:20;2.20;99.90
30399;DHT22;17195;50.838;7.214;2024-01-07T14:51:45;2.10;99.90
30399;DHT22;17195;50.838;7.214;2024-01-07T14:54:12;2.10;99.90
30399;DHT22;17195;50.838;7.214;2024-01-07T14:56:38;2.10;99.90
30399;DHT22;17195;50.838;7.214;2024-01-07T14:59:04;2.00;99.90
30399;DHT22;17195;50.838;7.214;2024-01-07T15:01:29;2.00;99.90
30399;DHT22;17195;50.838;7.214;2024-01-07T15:03:55;2.00;99.90
30399;DHT22;17195;50.838;7.214;2024-01-07T15:06:20;2.00;99.90
30399;DHT22;17195;50.838;7.214;2024-01-07T15:08:46;1.90;99.90
30399;DHT22;17195;50.838;7.214;2024-01-07T15:11:13;1.80;99.90
30399;DHT22;17195;50.838;7.214;2024-01-07T15:13:38;1.80;99.90
30399;DHT22;17195;50.838;7.214;2024-01-07T15:16:05;1.70;99.90
30399;DHT22;17195;50.838;7.214;2024-01-07T15:18:31;1.70;99.90
30399;DHT22;17195;50.838;7.214;2024-01-07T15:20:57;1.80;99.90
30399;DHT22;17195;50.838;7.214;2024-01-07T15:23:22;1.70;99.90
30399;DHT22;17195;50.838;7.214;2024-01-07T15:25:48;1.50;99.90
30399;DHT22;17195;50.838;7.214;2024-01-07T15:28:13;1.40;99.90
30399;DHT22;17195;50.838;7.214;2024-01-07T15:30:39;1.30;99.90
30399;DHT22;17195;50.838;7.214;2024-01-07T15:33:05;1.10;99.90
30399;DHT22;17195;50.838;7.214;2024-01-07T15:35:30;1.10;99.90
30399;DHT22;17195;50.838;7.214;2024-01-07T15:37:56;1.00;99.90
30399;DHT22;17195;50.838;7.214;2024-01-07T15:40:23;1.00;99.90
30399;DHT22;17195;50.838;7.214;2024-01-07T15:42:48;0.80;99.90